Terminal Aerodrome Forecast
Issued by NWS Lake Charles, LA

Home | Current Version | Previous Version | Text Only | Print | Product List | Glossary On
Versions: 1 2 3 4 5 6 7 8 9 10 11 12 13 14 15 16 17 18
000
FTUS44 KLCH 170500
TAFARA
TAF
KARA 170520Z 1706/1806 VRB03KT P6SM BKN200
     FM171300 VRB05KT P6SM VCSH SCT025 BKN250
     FM171800 19006KT P6SM VCTS BKN040CB PROB30 1718/1724 VRB15G25KT
      3SM TSRA BKN030CB
     FM180300 VRB03KT P6SM BKN200=

USA.gov is the U.S. government's official web portal to all federal, state and local government web resources and services.